createdAt,value
2022-11-14T00:00:53.223Z,101832.50
2022-11-14T00:03:19.973Z,101829.88
2022-11-14T00:05:47.016Z,101827.25
2022-11-14T00:08:20.552Z,101822.94
2022-11-14T00:10:48.613Z,101811.78
2022-11-14T00:13:16.757Z,101817.78
2022-11-14T00:15:44.554Z,101816.94
2022-11-14T00:18:11.010Z,101820.41
2022-11-14T00:20:37.416Z,101815.25
2022-11-14T00:23:03.941Z,101815.28
2022-11-14T00:25:31.208Z,101817.88
2022-11-14T00:28:01.275Z,101819.56
2022-11-14T00:30:28.402Z,101811.00
2022-11-14T00:32:54.792Z,101813.59
2022-11-14T00:35:21.260Z,101809.28
2022-11-14T00:37:47.724Z,101817.06
2022-11-14T00:40:14.791Z,101813.63
2022-11-14T00:42:42.107Z,101816.25
2022-11-14T00:45:09.148Z,101821.41
2022-11-14T00:47:35.527Z,101811.97
2022-11-14T00:50:02.211Z,101821.44
2022-11-14T00:52:28.656Z,101819.69
2022-11-14T00:54:55.065Z,101813.69
2022-11-14T00:57:21.470Z,101805.97
2022-11-14T00:59:47.913Z,101805.06
2022-11-14T01:02:14.401Z,101794.78
2022-11-14T01:04:40.857Z,101796.56
2022-11-14T01:07:07.255Z,101795.72
2022-11-14T01:09:33.757Z,101786.28
2022-11-14T01:12:00.223Z,101787.13
2022-11-14T01:14:26.667Z,101778.56
2022-11-14T01:16:53.101Z,101779.41
2022-11-14T01:19:19.518Z,101774.25
2022-11-14T01:21:46.135Z,101772.50
2022-11-14T01:24:12.588Z,101771.69
2022-11-14T01:26:39.025Z,101774.25
2022-11-14T01:29:05.519Z,101763.97
2022-11-14T01:31:31.994Z,101756.25
2022-11-14T01:33:58.483Z,101753.72
2022-11-14T01:36:24.910Z,101746.00
2022-11-14T01:38:54.836Z,101746.84
2022-11-14T01:41:21.979Z,101742.59
2022-11-14T01:43:49.286Z,101743.44
2022-11-14T01:46:37.269Z,101740.91
2022-11-14T01:49:11.482Z,101740.94
2022-11-14T01:51:41.080Z,101730.66
2022-11-14T01:54:14.581Z,101729.84
2022-11-14T01:56:46.719Z,101723.84
2022-11-14T01:59:17.972Z,101724.72
2022-11-14T02:01:53.179Z,101717.84
2022-11-14T02:04:24.389Z,101705.00
2022-11-14T02:06:55.257Z,101705.03
2022-11-14T02:09:22.173Z,101707.69
2022-11-14T02:11:50.084Z,101698.25
2022-11-14T02:14:16.600Z,101694.03
2022-11-14T02:16:55.457Z,101703.50
2022-11-14T02:19:42.968Z,101696.66
2022-11-14T02:22:09.616Z,101705.28
2022-11-14T02:24:36.194Z,101702.69
2022-11-14T02:27:05.954Z,101692.44
2022-11-14T02:29:34.231Z,101696.72
2022-11-14T02:32:00.949Z,101690.78
2022-11-14T02:34:27.441Z,101688.22
2022-11-14T02:36:54.001Z,101680.50
2022-11-14T02:39:20.423Z,101686.56
2022-11-14T02:41:46.838Z,101685.72
2022-11-14T02:44:13.351Z,101686.59
2022-11-14T02:46:39.834Z,101683.16
2022-11-14T02:49:06.248Z,101685.78
2022-11-14T02:51:32.676Z,101681.53
2022-11-14T02:53:59.085Z,101679.84
2022-11-14T02:56:25.565Z,101678.19
2022-11-14T02:58:52.009Z,101676.47
2022-11-14T03:01:21.221Z,101682.50
2022-11-14T03:03:48.134Z,101679.09
2022-11-14T03:06:14.601Z,101683.41
2022-11-14T03:08:41.055Z,101680.00
2022-11-14T03:11:09.502Z,101680.03
2022-11-14T03:13:36.599Z,101674.91
2022-11-14T03:16:11.637Z,101668.94
2022-11-14T03:18:38.081Z,101661.25
2022-11-14T03:21:13.675Z,101659.59
2022-11-14T03:23:40.624Z,101647.59
2022-11-14T03:26:10.003Z,101650.19
2022-11-14T03:28:37.644Z,101652.81
2022-11-14T03:31:04.458Z,101651.09
2022-11-14T03:33:31.657Z,101655.41
2022-11-14T03:35:58.221Z,101651.16
2022-11-14T03:38:24.780Z,101640.03
2022-11-14T03:40:51.485Z,101643.50
2022-11-14T03:43:19.693Z,101633.22
2022-11-14T03:45:46.954Z,101633.25
2022-11-14T03:48:13.861Z,101632.44
2022-11-14T03:50:40.983Z,101623.88
2022-11-14T03:53:07.419Z,101629.03
2022-11-14T03:55:34.419Z,101630.75
2022-11-14T03:58:00.911Z,101624.75
2022-11-14T04:00:28.861Z,101617.03
2022-11-14T04:02:56.138Z,101621.31
2022-11-14T04:05:23.158Z,101616.16
2022-11-14T04:07:49.714Z,101613.59
2022-11-14T04:10:16.634Z,101612.75
2022-11-14T04:12:51.312Z,101615.31
2022-11-14T04:15:18.953Z,101612.78
2022-11-14T04:17:46.321Z,101608.50
2022-11-14T04:20:14.197Z,101606.81
2022-11-14T04:22:41.255Z,101605.13
2022-11-14T04:25:08.975Z,101597.44
2022-11-14T04:27:35.702Z,101601.72
2022-11-14T04:30:02.379Z,101601.75
2022-11-14T04:32:28.950Z,101602.63
2022-11-14T04:34:55.384Z,101593.22
2022-11-14T04:37:21.836Z,101593.22
2022-11-14T04:39:48.266Z,101592.34
2022-11-14T04:42:14.707Z,101595.81
2022-11-14T04:44:41.204Z,101587.25
2022-11-14T04:47:07.984Z,101590.66
2022-11-14T04:49:34.428Z,101585.53
2022-11-14T04:52:00.851Z,101585.53
2022-11-14T04:54:27.327Z,101581.25
2022-11-14T04:56:53.783Z,101577.81
2022-11-14T04:59:21.286Z,101570.94
2022-11-14T05:01:47.935Z,101570.97
2022-11-14T05:04:14.678Z,101573.56
2022-11-14T05:06:41.231Z,101569.28
2022-11-14T05:09:07.669Z,101560.72
2022-11-14T05:11:34.123Z,101561.59
2022-11-14T05:14:00.561Z,101558.16
2022-11-14T05:16:27.010Z,101554.75
2022-11-14T05:18:54.990Z,101546.19
2022-11-14T05:21:21.845Z,101548.75
2022-11-14T05:23:48.325Z,101551.31
2022-11-14T05:26:17.449Z,101546.19
2022-11-14T05:28:43.876Z,101542.81
2022-11-14T05:31:13.791Z,101551.41
2022-11-14T05:33:40.295Z,101547.97
2022-11-14T05:36:10.037Z,101545.41
2022-11-14T05:38:36.932Z,101553.13
2022-11-14T05:41:12.420Z,101554.03
2022-11-14T05:43:39.479Z,101547.19
2022-11-14T05:46:07.935Z,101542.91
2022-11-14T05:48:34.491Z,101548.91
2022-11-14T05:51:03.506Z,101544.59
2022-11-14T05:53:31.086Z,101540.34
2022-11-14T05:56:05.833Z,101542.03
2022-11-14T05:58:33.036Z,101539.50
2022-11-14T06:01:12.518Z,101544.66
2022-11-14T06:03:41.605Z,101542.09
2022-11-14T06:06:10.168Z,101539.53
2022-11-14T06:08:37.130Z,101533.56
2022-11-14T06:11:08.963Z,101528.44
2022-11-14T06:13:35.863Z,101535.28
2022-11-14T06:16:04.210Z,101526.72
2022-11-14T06:18:32.057Z,101529.28
2022-11-14T06:21:00.495Z,101527.59
2022-11-14T06:23:27.593Z,101524.16
2022-11-14T06:26:02.438Z,101523.34
2022-11-14T06:28:29.492Z,101520.78
2022-11-14T06:31:00.838Z,101520.78
2022-11-14T06:33:36.252Z,101520.81
2022-11-14T06:36:05.452Z,101526.84
2022-11-14T06:38:33.777Z,101526.84
2022-11-14T06:41:17.944Z,101528.59
2022-11-14T06:43:46.995Z,101538.84
2022-11-14T06:46:16.271Z,101545.69
2022-11-14T06:48:44.208Z,101534.56
2022-11-14T06:51:12.090Z,101540.56
2022-11-14T06:53:39.609Z,101542.28
2022-11-14T06:56:11.295Z,101543.13
2022-11-14T06:58:40.717Z,101540.53
2022-11-14T07:01:16.818Z,101542.28
2022-11-14T07:03:44.333Z,101530.28
2022-11-14T07:06:16.661Z,101530.28
2022-11-14T07:08:43.148Z,101546.50
2022-11-14T07:11:22.795Z,101530.25
2022-11-14T07:13:58.349Z,101531.97
2022-11-14T07:16:30.115Z,101531.97
2022-11-14T07:19:00.411Z,101533.66
2022-11-14T07:21:28.664Z,101538.78
2022-11-14T07:23:56.019Z,101533.63
2022-11-14T07:26:23.120Z,101547.31
2022-11-14T07:28:53.541Z,101545.63
2022-11-14T07:31:21.594Z,101547.28
2022-11-14T07:33:48.709Z,101544.69
2022-11-14T07:36:16.299Z,101549.81
2022-11-14T07:38:42.866Z,101548.09
2022-11-14T07:41:14.886Z,101539.53
2022-11-14T07:43:42.114Z,101539.47
2022-11-14T07:46:14.773Z,101543.75
2022-11-14T07:48:41.819Z,101539.41
2022-11-14T07:51:14.235Z,101535.97
2022-11-14T07:53:40.713Z,101535.06
2022-11-14T07:56:09.811Z,101534.19
2022-11-14T07:58:40.876Z,101528.16
2022-11-14T08:01:09.784Z,101527.25
2022-11-14T08:03:39.721Z,101528.94
2022-11-14T08:06:14.451Z,101527.22
2022-11-14T08:08:40.908Z,101519.47
2022-11-14T08:11:07.939Z,101511.75
2022-11-14T08:13:34.413Z,101515.97
2022-11-14T08:16:11.949Z,101505.66
2022-11-14T08:18:39.222Z,101510.75
2022-11-14T08:21:06.248Z,101510.75
2022-11-14T08:23:32.705Z,101504.72
2022-11-14T08:25:59.947Z,101505.56
2022-11-14T08:28:26.518Z,101500.34
2022-11-14T08:30:52.951Z,101498.59
2022-11-14T08:33:19.364Z,101497.69
2022-11-14T08:35:45.804Z,101501.94
2022-11-14T08:38:12.201Z,101494.16
2022-11-14T08:40:39.867Z,101502.69
2022-11-14T08:43:06.444Z,101495.78
2022-11-14T08:45:32.927Z,101494.84
2022-11-14T08:47:59.353Z,101493.94
2022-11-14T08:50:25.862Z,101489.56
2022-11-14T08:52:52.431Z,101486.91
2022-11-14T08:55:20.403Z,101485.13
2022-11-14T08:57:49.730Z,101485.91
2022-11-14T09:00:17.001Z,101478.94
2022-11-14T09:02:43.529Z,101482.28
2022-11-14T09:05:10.276Z,101484.75
2022-11-14T09:07:36.764Z,101480.34
2022-11-14T09:10:04.902Z,101474.22
2022-11-14T09:12:31.469Z,101477.50
2022-11-14T09:14:57.913Z,101467.94
2022-11-14T09:17:24.449Z,101476.44
2022-11-14T09:19:50.877Z,101467.75
2022-11-14T09:22:17.343Z,101464.19
2022-11-14T09:24:47.020Z,101462.34
2022-11-14T09:27:14.026Z,101463.94
2022-11-14T09:29:40.544Z,101465.53
2022-11-14T09:32:06.965Z,101453.31
2022-11-14T09:34:33.537Z,101449.72
2022-11-14T09:36:59.967Z,101454.72
2022-11-14T09:39:26.375Z,101446.78
2022-11-14T09:42:17.380Z,101448.34
2022-11-14T09:45:05.315Z,101449.84
2022-11-14T09:47:50.411Z,101444.44
2022-11-14T09:50:25.958Z,101441.66
2022-11-14T09:52:57.249Z,101443.19
2022-11-14T09:55:37.262Z,101436.03
2022-11-14T09:58:05.151Z,101440.97
2022-11-14T10:01:09.580Z,101432.06
2022-11-14T10:04:14.217Z,101432.63
2022-11-14T10:07:07.040Z,101427.19
2022-11-14T10:09:53.676Z,101431.25
2022-11-14T10:13:03.972Z,101424.16
2022-11-14T10:15:33.883Z,101426.56
2022-11-14T10:18:03.748Z,101422.94
2022-11-14T10:20:47.880Z,101415.84
2022-11-14T10:23:39.029Z,101419.06
2022-11-14T10:26:08.520Z,101410.31
2022-11-14T10:28:53.315Z,101408.41
2022-11-14T10:31:43.581Z,101414.19
2022-11-14T10:34:27.988Z,101408.84
2022-11-14T10:37:10.190Z,101400.94
2022-11-14T10:39:47.339Z,101402.44
2022-11-14T10:42:22.624Z,101397.09
2022-11-14T10:45:15.735Z,101390.84
2022-11-14T10:47:49.142Z,101384.75
2022-11-14T10:50:20.347Z,101382.84
2022-11-14T10:52:48.283Z,101380.97
2022-11-14T10:55:17.806Z,101373.13
2022-11-14T10:57:46.961Z,101371.16
2022-11-14T11:00:16.787Z,101364.94
2022-11-14T11:02:52.829Z,101356.94
2022-11-14T11:05:22.194Z,101351.63
2022-11-14T11:08:41.401Z,101360.97
2022-11-14T11:11:31.098Z,101361.69
2022-11-14T11:14:00.671Z,101359.84
2022-11-14T11:16:29.720Z,101353.75
2022-11-14T11:19:23.979Z,101349.25
2022-11-14T11:21:52.785Z,101354.25
2022-11-14T11:24:33.506Z,101348.09
2022-11-14T11:27:18.641Z,101344.44
2022-11-14T11:29:45.113Z,101335.75
2022-11-14T11:32:11.623Z,101331.34
2022-11-14T11:34:38.066Z,101323.44
2022-11-14T11:37:20.695Z,101324.25
2022-11-14T11:39:54.958Z,101327.63
2022-11-14T11:43:12.292Z,101325.81
2022-11-14T11:45:20.125Z,101333.38
2022-11-14T11:48:05.560Z,101321.97
2022-11-14T11:50:31.988Z,101322.75
2022-11-14T11:53:16.506Z,101326.97
2022-11-14T11:55:58.952Z,101326.94
2022-11-14T11:58:35.453Z,101331.97
2022-11-14T12:01:02.035Z,101331.91
2022-11-14T12:03:28.917Z,101335.28
2022-11-14T12:06:16.093Z,101331.75
2022-11-14T12:08:59.179Z,101329.09
2022-11-14T12:11:28.191Z,101326.47
2022-11-14T12:14:12.576Z,101328.16
2022-11-14T12:16:45.035Z,101333.16
2022-11-14T12:19:31.836Z,101324.44
2022-11-14T12:22:39.835Z,101330.44
2022-11-14T12:25:34.251Z,101328.78
2022-11-14T12:28:06.760Z,101327.97
2022-11-14T12:30:35.678Z,101325.63
2022-11-14T12:33:09.452Z,101331.75
2022-11-14T12:35:37.191Z,101320.53
2022-11-14T12:38:13.020Z,101316.97
2022-11-14T12:40:42.693Z,101323.03
2022-11-14T12:43:44.659Z,101319.53
2022-11-14T12:46:13.107Z,101311.66
2022-11-14T12:48:44.372Z,101306.56
2022-11-14T12:51:29.208Z,101303.13
2022-11-14T12:53:57.368Z,101306.59
2022-11-14T12:56:32.724Z,101306.72
2022-11-14T12:59:22.833Z,101315.56
2022-11-14T13:02:22.156Z,101308.00
2022-11-14T13:05:23.346Z,101313.34
2022-11-14T13:08:40.454Z,101306.63
2022-11-14T13:11:50.808Z,101307.66
2022-11-14T13:14:38.295Z,101308.75
2022-11-14T13:17:29.282Z,101305.53
2022-11-14T13:20:15.613Z,101294.34
2022-11-14T13:22:44.138Z,101285.75
2022-11-14T13:25:10.514Z,101284.16
2022-11-14T13:28:05.783Z,101272.97
2022-11-14T13:31:01.957Z,101267.78
2022-11-14T13:33:49.913Z,101257.41
2022-11-14T13:36:41.418Z,101252.31
2022-11-14T13:39:20.645Z,101258.38
2022-11-14T13:42:29.656Z,101250.66
2022-11-14T13:45:01.900Z,101251.56
2022-11-14T13:47:54.138Z,101243.81
2022-11-14T13:50:31.411Z,101242.88
2022-11-14T13:52:59.222Z,101234.31
2022-11-14T13:55:37.288Z,101239.44
2022-11-14T13:58:19.500Z,101228.09
2022-11-14T14:01:16.898Z,101224.56
2022-11-14T14:04:08.872Z,101229.75
2022-11-14T14:06:38.336Z,101236.66
2022-11-14T14:09:32.776Z,101248.69
2022-11-14T14:12:11.339Z,101247.88
2022-11-14T14:14:59.780Z,101242.59
2022-11-14T14:17:51.113Z,101244.44
2022-11-14T14:20:40.720Z,101246.16
2022-11-14T14:23:27.841Z,101257.38
2022-11-14T14:25:54.198Z,101260.84
2022-11-14T14:28:34.683Z,101255.78
2022-11-14T14:31:04.364Z,101259.28
2022-11-14T14:33:48.842Z,101249.84
2022-11-14T14:36:25.737Z,101248.09
2022-11-14T14:39:15.256Z,101251.50
2022-11-14T14:41:41.869Z,101244.63
2022-11-14T14:44:31.658Z,101236.06
2022-11-14T14:46:58.474Z,101239.50
2022-11-14T14:49:36.657Z,101229.97
2022-11-14T14:52:28.754Z,101222.19
2022-11-14T14:54:56.732Z,101225.66
2022-11-14T14:57:30.345Z,101225.66
2022-11-14T15:00:16.952Z,101223.09
2022-11-14T15:02:43.893Z,101210.97
2022-11-14T15:05:10.442Z,101203.19
2022-11-14T15:07:39.568Z,101190.25
2022-11-14T15:10:09.901Z,101195.53
2022-11-14T15:12:36.847Z,101199.88
2022-11-14T15:15:04.602Z,101216.34
2022-11-14T15:17:35.650Z,101213.78
2022-11-14T15:20:02.813Z,101206.88
2022-11-14T15:22:29.738Z,101205.97
2022-11-14T15:25:11.553Z,101209.47
2022-11-14T15:28:04.322Z,101212.06
2022-11-14T15:30:36.548Z,101208.66
2022-11-14T15:33:06.398Z,101208.66
2022-11-14T15:35:35.643Z,101202.66
2022-11-14T15:38:37.341Z,101192.31
2022-11-14T15:41:17.455Z,101190.69
2022-11-14T15:43:43.889Z,101186.41
2022-11-14T15:46:28.856Z,101187.31
2022-11-14T15:48:55.532Z,101184.75
2022-11-14T15:51:42.496Z,101183.06
2022-11-14T15:54:21.617Z,101192.59
2022-11-14T15:56:48.528Z,101195.19
2022-11-14T15:59:15.057Z,101190.84
2022-11-14T16:01:42.881Z,101196.09
2022-11-14T16:04:18.524Z,101188.31
2022-11-14T16:06:45.160Z,101185.03
2022-11-14T16:09:20.982Z,101195.44
2022-11-14T16:11:49.132Z,101186.94
2022-11-14T16:14:16.273Z,101192.31
2022-11-14T16:16:42.728Z,101189.00
2022-11-14T16:19:12.990Z,101189.19
2022-11-14T16:21:39.550Z,101195.38
2022-11-14T16:24:06.883Z,101194.69
2022-11-14T16:26:33.391Z,101193.94
2022-11-14T16:28:59.924Z,101192.38
2022-11-14T16:31:26.427Z,101192.53
2022-11-14T16:33:52.920Z,101187.53
2022-11-14T16:36:21.642Z,101196.31
2022-11-14T16:38:52.092Z,101197.25
2022-11-14T16:41:19.604Z,101187.91
2022-11-14T16:43:46.488Z,101185.47
2022-11-14T16:46:12.950Z,101177.81
2022-11-14T16:48:39.430Z,101177.94
2022-11-14T16:51:20.167Z,101177.25
2022-11-14T16:53:56.443Z,101176.50
2022-11-14T16:56:23.235Z,101174.00
2022-11-14T16:58:54.294Z,101174.09
2022-11-14T17:01:21.558Z,101169.00
2022-11-14T17:03:48.099Z,101171.75
2022-11-14T17:06:14.606Z,101181.28
2022-11-14T17:08:41.042Z,101173.63
2022-11-14T17:11:09.785Z,101174.56
2022-11-14T17:13:37.094Z,101166.91
2022-11-14T17:16:04.899Z,101170.44
2022-11-14T17:18:35.592Z,101174.81
2022-11-14T17:21:09.925Z,101180.09
2022-11-14T17:23:36.437Z,101171.56
2022-11-14T17:26:07.419Z,101173.41
2022-11-14T17:28:34.202Z,101170.06
2022-11-14T17:31:05.348Z,101170.06
2022-11-14T17:33:32.020Z,101165.91
2022-11-14T17:36:06.744Z,101179.72
2022-11-14T17:38:34.457Z,101166.84
2022-11-14T17:41:00.893Z,101165.25
2022-11-14T17:43:27.685Z,101163.66
2022-11-14T17:45:57.375Z,101161.16
2022-11-14T17:48:24.167Z,101165.47
2022-11-14T17:50:51.176Z,101156.91
2022-11-14T17:53:17.694Z,101151.81
2022-11-14T17:55:45.350Z,101151.88
2022-11-14T17:58:12.911Z,101150.16
2022-11-14T18:00:39.323Z,101140.72
2022-11-14T18:03:05.781Z,101145.97
2022-11-14T18:05:32.192Z,101144.28
2022-11-14T18:07:58.612Z,101146.03
2022-11-14T18:10:25.061Z,101144.38
2022-11-14T18:12:51.484Z,101146.16
2022-11-14T18:15:18.116Z,101138.47
2022-11-14T18:17:44.625Z,101136.81
2022-11-14T18:20:11.254Z,101139.44
2022-11-14T18:22:37.797Z,101140.31
2022-11-14T18:25:07.856Z,101138.63
2022-11-14T18:27:34.681Z,101140.38
2022-11-14T18:30:13.829Z,101138.72
2022-11-14T18:32:47.588Z,101131.81
2022-11-14T18:35:13.992Z,101136.13
2022-11-14T18:37:40.394Z,101131.00
2022-11-14T18:40:10.911Z,101133.53
2022-11-14T18:42:42.282Z,101134.38
2022-11-14T18:45:09.065Z,101131.72
2022-11-14T18:47:35.500Z,101135.06
2022-11-14T18:50:03.829Z,101137.53
2022-11-14T18:52:30.260Z,101135.72
2022-11-14T18:54:56.666Z,101121.13
2022-11-14T18:57:23.225Z,101129.81
2022-11-14T18:59:49.665Z,101127.28
2022-11-14T19:02:16.208Z,101128.22
2022-11-14T19:04:42.823Z,101123.06
2022-11-14T19:07:10.084Z,101124.88
2022-11-14T19:09:37.682Z,101124.09
2022-11-14T19:12:18.950Z,101119.84
2022-11-14T19:14:46.274Z,101126.72
2022-11-14T19:17:14.084Z,101124.22
2022-11-14T19:19:40.588Z,101117.44
2022-11-14T19:22:07.016Z,101120.94
2022-11-14T19:24:33.468Z,101119.25
2022-11-14T19:26:59.892Z,101123.66
2022-11-14T19:29:26.431Z,101122.88
2022-11-14T19:31:54.571Z,101112.66
2022-11-14T19:34:21.011Z,101115.34
2022-11-14T19:37:02.718Z,101115.38
2022-11-14T19:39:29.369Z,101115.50
2022-11-14T19:41:55.925Z,101116.44
2022-11-14T19:44:22.331Z,101119.94
2022-11-14T19:46:48.900Z,101126.88
2022-11-14T19:49:15.706Z,101133.84
2022-11-14T19:51:42.221Z,101135.53
2022-11-14T19:54:10.573Z,101129.59
2022-11-14T19:56:37.219Z,101130.50
2022-11-14T19:59:09.622Z,101129.75
2022-11-14T20:01:39.654Z,101134.09
2022-11-14T20:04:07.399Z,101131.56
2022-11-14T20:06:36.265Z,101127.28
2022-11-14T20:09:06.907Z,101121.19
2022-11-14T20:11:33.534Z,101112.44
2022-11-14T20:14:01.190Z,101118.38
2022-11-14T20:16:30.587Z,101128.81
2022-11-14T20:19:00.014Z,101123.69
2022-11-14T20:21:29.371Z,101121.09
2022-11-14T20:23:56.200Z,101113.38
2022-11-14T20:26:23.513Z,101116.75
2022-11-14T20:28:52.843Z,101114.19
2022-11-14T20:31:22.640Z,101112.38
2022-11-14T20:33:51.229Z,101105.38
2022-11-14T20:36:23.905Z,101096.72
2022-11-14T20:38:51.194Z,101101.81
2022-11-14T20:41:18.200Z,101101.66
2022-11-14T20:43:44.771Z,101099.00
2022-11-14T20:46:16.664Z,101089.50
2022-11-14T20:48:43.537Z,101088.63
2022-11-14T20:51:14.199Z,101079.25
2022-11-14T20:53:41.455Z,101085.38
2022-11-14T20:56:09.085Z,101082.84
2022-11-14T20:58:35.845Z,101082.06
2022-11-14T21:01:02.742Z,101080.41
2022-11-14T21:03:29.873Z,101078.66
2022-11-14T21:05:57.064Z,101074.25
2022-11-14T21:08:23.516Z,101081.81
2022-11-14T21:10:50.878Z,101082.59
2022-11-14T21:13:40.517Z,101078.19
2022-11-14T21:16:09.661Z,101079.75
2022-11-14T21:18:38.339Z,101073.59
2022-11-14T21:21:10.891Z,101071.78
2022-11-14T21:23:37.638Z,101061.31
2022-11-14T21:26:14.516Z,101064.69
2022-11-14T21:28:46.028Z,101059.44
2022-11-14T21:31:33.340Z,101062.81
2022-11-14T21:34:02.327Z,101068.72
2022-11-14T21:36:44.334Z,101067.88
2022-11-14T21:39:14.952Z,101064.38
2022-11-14T21:41:42.645Z,101060.03
2022-11-14T21:44:12.984Z,101056.47
2022-11-14T21:46:39.828Z,101057.34
2022-11-14T21:49:06.296Z,101062.47
2022-11-14T21:51:32.691Z,101060.69
2022-11-14T21:53:59.146Z,101062.38
2022-11-14T21:56:28.164Z,101064.91
2022-11-14T21:59:12.641Z,101060.59
2022-11-14T22:01:59.192Z,101063.13
2022-11-14T22:04:26.089Z,101063.94
2022-11-14T22:06:53.133Z,101064.72
2022-11-14T22:09:20.232Z,101063.88
2022-11-14T22:11:46.768Z,101058.66
2022-11-14T22:14:13.236Z,101060.38
2022-11-14T22:16:39.913Z,101058.56
2022-11-14T22:19:06.714Z,101061.94
2022-11-14T22:21:33.136Z,101059.38
2022-11-14T22:23:59.712Z,101050.72
2022-11-14T22:26:26.248Z,101051.53
2022-11-14T22:28:52.676Z,101040.28
2022-11-14T22:31:21.327Z,101048.00
2022-11-14T22:33:49.849Z,101058.28
2022-11-14T22:36:21.550Z,101048.78
2022-11-14T22:38:49.063Z,101056.50
2022-11-14T22:41:42.699Z,101049.59
2022-11-14T22:44:09.185Z,101053.88
2022-11-14T22:46:35.600Z,101042.59
2022-11-14T22:49:03.833Z,101039.16
2022-11-14T22:51:30.667Z,101041.69
2022-11-14T22:53:58.093Z,101045.09
2022-11-14T22:56:28.009Z,101042.50
2022-11-14T22:58:55.075Z,101040.75
2022-11-14T23:01:21.431Z,101045.03
2022-11-14T23:03:52.371Z,101038.09
2022-11-14T23:06:19.547Z,101039.75
2022-11-14T23:08:46.164Z,101031.97
2022-11-14T23:11:14.991Z,101033.66
2022-11-14T23:13:50.096Z,101036.16
2022-11-14T23:16:22.347Z,101034.47
2022-11-14T23:18:49.781Z,101036.97
2022-11-14T23:21:28.252Z,101026.63
2022-11-14T23:23:56.648Z,101028.31
2022-11-14T23:26:23.608Z,101020.53
2022-11-14T23:28:50.175Z,101028.22
2022-11-14T23:31:19.533Z,101020.44
2022-11-14T23:33:52.663Z,101016.94
2022-11-14T23:36:19.599Z,101015.22
2022-11-14T23:38:46.141Z,101012.63
2022-11-14T23:41:18.592Z,101012.59
2022-11-14T23:43:45.737Z,101016.03
2022-11-14T23:46:12.586Z,101013.38
2022-11-14T23:48:39.001Z,101022.84
2022-11-14T23:51:05.522Z,101008.19
2022-11-14T23:53:32.285Z,101012.44
2022-11-14T23:56:01.160Z,101009.81
2022-11-14T23:58:28.804Z,101012.34
